sensor_id;sensor_type;location;lat;lon;timestamp;pressure;altitude;pressure_sealevel;temperature
69435;BMP180;56625;54.322;18.582;2023-02-28T00:01:26;102456.60;;;-3.90
69435;BMP180;56625;54.322;18.582;2023-02-28T00:03:54;102452.00;;;-3.90
69435;BMP180;56625;54.322;18.582;2023-02-28T00:06:20;102453.40;;;-3.90
69435;BMP180;56625;54.322;18.582;2023-02-28T00:08:48;102452.20;;;-4.00
69435;BMP180;56625;54.322;18.582;2023-02-28T00:11:16;102449.20;;;-3.92
69435;BMP180;56625;54.322;18.582;2023-02-28T00:13:46;102447.80;;;-3.94
69435;BMP180;56625;54.322;18.582;2023-02-28T00:16:19;102446.80;;;-3.94
69435;BMP180;56625;54.322;18.582;2023-02-28T00:18:47;102448.80;;;-4.00
69435;BMP180;56625;54.322;18.582;2023-02-28T00:21:16;102445.00;;;-4.00
69435;BMP180;56625;54.322;18.582;2023-02-28T00:23:43;102452.00;;;-4.00
69435;BMP180;56625;54.322;18.582;2023-02-28T00:26:10;102456.60;;;-4.00
69435;BMP180;56625;54.322;18.582;2023-02-28T00:28:36;102458.20;;;-4.00
69435;BMP180;56625;54.322;18.582;2023-02-28T00:31:03;102460.80;;;-4.00
69435;BMP180;56625;54.322;18.582;2023-02-28T00:33:31;102462.80;;;-4.10
69435;BMP180;56625;54.322;18.582;2023-02-28T00:36:07;102467.20;;;-4.10
69435;BMP180;56625;54.322;18.582;2023-02-28T00:38:34;102466.00;;;-4.10
69435;BMP180;56625;54.322;18.582;2023-02-28T00:41:01;102469.40;;;-4.16
69435;BMP180;56625;54.322;18.582;2023-02-28T00:43:35;102469.00;;;-4.20
69435;BMP180;56625;54.322;18.582;2023-02-28T00:46:03;102471.40;;;-4.20
69435;BMP180;56625;54.322;18.582;2023-02-28T00:48:31;102471.40;;;-4.20
69435;BMP180;56625;54.322;18.582;2023-02-28T00:50:58;102475.80;;;-4.20
69435;BMP180;56625;54.322;18.582;2023-02-28T00:53:25;102473.80;;;-4.30
69435;BMP180;56625;54.322;18.582;2023-02-28T00:55:51;102480.60;;;-4.30
69435;BMP180;56625;54.322;18.582;2023-02-28T00:58:18;102482.20;;;-4.34
69435;BMP180;56625;54.322;18.582;2023-02-28T01:00:46;102477.20;;;-4.40
69435;BMP180;56625;54.322;18.582;2023-02-28T01:03:17;102472.80;;;-4.50
69435;BMP180;56625;54.322;18.582;2023-02-28T01:05:45;102470.60;;;-4.50
69435;BMP180;56625;54.322;18.582;2023-02-28T01:08:13;102476.20;;;-4.50
69435;BMP180;56625;54.322;18.582;2023-02-28T01:10:40;102477.60;;;-4.50
69435;BMP180;56625;54.322;18.582;2023-02-28T01:13:07;102475.20;;;-4.40
69435;BMP180;56625;54.322;18.582;2023-02-28T01:15:34;102473.80;;;-4.40
69435;BMP180;56625;54.322;18.582;2023-02-28T01:18:01;102476.00;;;-4.40
69435;BMP180;56625;54.322;18.582;2023-02-28T01:20:27;102474.60;;;-4.48
69435;BMP180;56625;54.322;18.582;2023-02-28T01:22:54;102476.80;;;-4.50
69435;BMP180;56625;54.322;18.582;2023-02-28T01:25:20;102474.60;;;-4.50
69435;BMP180;56625;54.322;18.582;2023-02-28T01:27:47;102472.00;;;-4.50
69435;BMP180;56625;54.322;18.582;2023-02-28T01:30:13;102468.40;;;-4.50
69435;BMP180;56625;54.322;18.582;2023-02-28T01:32:40;102466.60;;;-4.50
69435;BMP180;56625;54.322;18.582;2023-02-28T01:35:07;102463.80;;;-4.50
69435;BMP180;56625;54.322;18.582;2023-02-28T01:37:33;102462.20;;;-4.50
69435;BMP180;56625;54.322;18.582;2023-02-28T01:40:00;102459.80;;;-4.54
69435;BMP180;56625;54.322;18.582;2023-02-28T01:42:26;102458.40;;;-4.54
69435;BMP180;56625;54.322;18.582;2023-02-28T01:45:29;102459.20;;;-4.60
69435;BMP180;56625;54.322;18.582;2023-02-28T01:48:04;102464.00;;;-4.60
69435;BMP180;56625;54.322;18.582;2023-02-28T01:50:39;102462.00;;;-4.60
69435;BMP180;56625;54.322;18.582;2023-02-28T01:53:15;102467.20;;;-4.60
69435;BMP180;56625;54.322;18.582;2023-02-28T01:55:48;102452.60;;;-4.60
69435;BMP180;56625;54.322;18.582;2023-02-28T01:58:16;102454.40;;;-4.60
69435;BMP180;56625;54.322;18.582;2023-02-28T02:00:42;102452.00;;;-4.60
69435;BMP180;56625;54.322;18.582;2023-02-28T02:03:13;102456.40;;;-4.60
69435;BMP180;56625;54.322;18.582;2023-02-28T02:05:43;102452.60;;;-4.60
69435;BMP180;56625;54.322;18.582;2023-02-28T02:08:19;102452.20;;;-4.56
69435;BMP180;56625;54.322;18.582;2023-02-28T02:10:57;102446.40;;;-4.54
69435;BMP180;56625;54.322;18.582;2023-02-28T02:16:54;102449.60;;;-4.50
69435;BMP180;56625;54.322;18.582;2023-02-28T02:25:52;102446.60;;;-4.50
69435;BMP180;56625;54.322;18.582;2023-02-28T02:31:25;102451.20;;;-4.60
69435;BMP180;56625;54.322;18.582;2023-02-28T02:34:46;102449.60;;;-4.60
69435;BMP180;56625;54.322;18.582;2023-02-28T02:37:39;102452.40;;;-4.50
69435;BMP180;56625;54.322;18.582;2023-02-28T02:40:37;102460.60;;;-4.50
69435;BMP180;56625;54.322;18.582;2023-02-28T02:43:17;102458.60;;;-4.50
69435;BMP180;56625;54.322;18.582;2023-02-28T02:45:52;102456.20;;;-4.50
69435;BMP180;56625;54.322;18.582;2023-02-28T02:48:27;102451.40;;;-4.40
69435;BMP180;56625;54.322;18.582;2023-02-28T02:51:00;102455.80;;;-4.40
69435;BMP180;56625;54.322;18.582;2023-02-28T02:53:42;102458.00;;;-4.40
69435;BMP180;56625;54.322;18.582;2023-02-28T02:56:11;102460.80;;;-4.40
69435;BMP180;56625;54.322;18.582;2023-02-28T02:58:42;102455.60;;;-4.40
69435;BMP180;56625;54.322;18.582;2023-02-28T03:01:21;102464.40;;;-4.32
69435;BMP180;56625;54.322;18.582;2023-02-28T03:04:01;102464.60;;;-4.40
69435;BMP180;56625;54.322;18.582;2023-02-28T03:06:28;102462.00;;;-4.40
69435;BMP180;56625;54.322;18.582;2023-02-28T03:08:55;102466.60;;;-4.40
69435;BMP180;56625;54.322;18.582;2023-02-28T03:11:22;102464.20;;;-4.40
69435;BMP180;56625;54.322;18.582;2023-02-28T03:25:08;102468.60;;;-4.50
69435;BMP180;56625;54.322;18.582;2023-02-28T03:35:56;102467.60;;;-4.60
69435;BMP180;56625;54.322;18.582;2023-02-28T03:38:34;102470.20;;;-4.62
69435;BMP180;56625;54.322;18.582;2023-02-28T03:41:25;102476.00;;;-4.68
69435;BMP180;56625;54.322;18.582;2023-02-28T03:44:05;102470.60;;;-4.70
69435;BMP180;56625;54.322;18.582;2023-02-28T03:46:38;102470.40;;;-4.70
69435;BMP180;56625;54.322;18.582;2023-02-28T03:49:19;102473.80;;;-4.70
69435;BMP180;56625;54.322;18.582;2023-02-28T03:51:51;102477.80;;;-4.70
69435;BMP180;56625;54.322;18.582;2023-02-28T03:54:27;102472.40;;;-4.70
69435;BMP180;56625;54.322;18.582;2023-02-28T03:57:24;102470.60;;;-4.70
69435;BMP180;56625;54.322;18.582;2023-02-28T04:00:03;102467.60;;;-4.70
69435;BMP180;56625;54.322;18.582;2023-02-28T04:02:32;102466.40;;;-4.70
69435;BMP180;56625;54.322;18.582;2023-02-28T04:05:00;102465.80;;;-4.70
69435;BMP180;56625;54.322;18.582;2023-02-28T04:07:31;102469.20;;;-4.68
69435;BMP180;56625;54.322;18.582;2023-02-28T04:09:59;102467.00;;;-4.60
69435;BMP180;56625;54.322;18.582;2023-02-28T04:12:26;102464.60;;;-4.60
69435;BMP180;56625;54.322;18.582;2023-02-28T04:14:52;102460.80;;;-4.60
69435;BMP180;56625;54.322;18.582;2023-02-28T04:17:19;102462.40;;;-4.60
69435;BMP180;56625;54.322;18.582;2023-02-28T04:19:45;102469.20;;;-4.60
69435;BMP180;56625;54.322;18.582;2023-02-28T04:22:12;102461.20;;;-4.50
69435;BMP180;56625;54.322;18.582;2023-02-28T04:24:39;102469.40;;;-4.50
69435;BMP180;56625;54.322;18.582;2023-02-28T04:27:09;102471.20;;;-4.50
69435;BMP180;56625;54.322;18.582;2023-02-28T04:29:36;102466.60;;;-4.42
69435;BMP180;56625;54.322;18.582;2023-02-28T04:32:03;102464.60;;;-4.40
69435;BMP180;56625;54.322;18.582;2023-02-28T04:34:32;102465.20;;;-4.40
69435;BMP180;56625;54.322;18.582;2023-02-28T04:36:59;102468.80;;;-4.40
69435;BMP180;56625;54.322;18.582;2023-02-28T04:39:39;102467.00;;;-4.40
69435;BMP180;56625;54.322;18.582;2023-02-28T04:42:07;102464.00;;;-4.40
69435;BMP180;56625;54.322;18.582;2023-02-28T04:44:34;102458.80;;;-4.40
69435;BMP180;56625;54.322;18.582;2023-02-28T04:47:00;102465.80;;;-4.40
69435;BMP180;56625;54.322;18.582;2023-02-28T04:49:27;102462.00;;;-4.40
69435;BMP180;56625;54.322;18.582;2023-02-28T04:51:53;102456.60;;;-4.40
69435;BMP180;56625;54.322;18.582;2023-02-28T04:54:20;102450.40;;;-4.40
69435;BMP180;56625;54.322;18.582;2023-02-28T04:56:46;102458.20;;;-4.40
69435;BMP180;56625;54.322;18.582;2023-02-28T04:59:16;102459.60;;;-4.40
69435;BMP180;56625;54.322;18.582;2023-02-28T05:01:47;102465.00;;;-4.40
69435;BMP180;56625;54.322;18.582;2023-02-28T05:04:14;102459.80;;;-4.40
69435;BMP180;56625;54.322;18.582;2023-02-28T05:06:41;102461.80;;;-4.40
69435;BMP180;56625;54.322;18.582;2023-02-28T05:09:10;102464.60;;;-4.40
69435;BMP180;56625;54.322;18.582;2023-02-28T05:11:40;102470.00;;;-4.40
69435;BMP180;56625;54.322;18.582;2023-02-28T05:14:12;102469.20;;;-4.40
69435;BMP180;56625;54.322;18.582;2023-02-28T05:16:39;102468.60;;;-4.40
69435;BMP180;56625;54.322;18.582;2023-02-28T05:19:06;102462.60;;;-4.40
69435;BMP180;56625;54.322;18.582;2023-02-28T05:21:36;102463.80;;;-4.40
69435;BMP180;56625;54.322;18.582;2023-02-28T05:24:10;102462.60;;;-4.40
69435;BMP180;56625;54.322;18.582;2023-02-28T05:26:41;102462.80;;;-4.40
69435;BMP180;56625;54.322;18.582;2023-02-28T05:29:08;102461.20;;;-4.46
69435;BMP180;56625;54.322;18.582;2023-02-28T05:31:38;102463.80;;;-4.44
69435;BMP180;56625;54.322;18.582;2023-02-28T05:34:05;102463.20;;;-4.42
69435;BMP180;56625;54.322;18.582;2023-02-28T05:36:32;102464.00;;;-4.40
69435;BMP180;56625;54.322;18.582;2023-02-28T05:38:58;102462.60;;;-4.40
69435;BMP180;56625;54.322;18.582;2023-02-28T05:41:25;102462.80;;;-4.40
69435;BMP180;56625;54.322;18.582;2023-02-28T05:43:52;102461.60;;;-4.40
69435;BMP180;56625;54.322;18.582;2023-02-28T05:46:18;102460.80;;;-4.40
69435;BMP180;56625;54.322;18.582;2023-02-28T05:48:47;102460.00;;;-4.30
69435;BMP180;56625;54.322;18.582;2023-02-28T05:51:14;102453.80;;;-4.30
69435;BMP180;56625;54.322;18.582;2023-02-28T05:53:41;102453.60;;;-4.30
69435;BMP180;56625;54.322;18.582;2023-02-28T05:56:07;102448.00;;;-4.20
69435;BMP180;56625;54.322;18.582;2023-02-28T05:58:34;102450.80;;;-4.20
69435;BMP180;56625;54.322;18.582;2023-02-28T06:01:40;102446.80;;;-4.12
69435;BMP180;56625;54.322;18.582;2023-02-28T06:04:09;102445.20;;;-4.10
69435;BMP180;56625;54.322;18.582;2023-02-28T06:06:51;102444.40;;;-4.00
69435;BMP180;56625;54.322;18.582;2023-02-28T06:09:18;102443.80;;;-3.96
69435;BMP180;56625;54.322;18.582;2023-02-28T06:11:45;102450.20;;;-3.90
69435;BMP180;56625;54.322;18.582;2023-02-28T06:14:17;102449.60;;;-3.80
69435;BMP180;56625;54.322;18.582;2023-02-28T06:16:44;102448.20;;;-3.70
69435;BMP180;56625;54.322;18.582;2023-02-28T06:19:11;102446.00;;;-3.66
69435;BMP180;56625;54.322;18.582;2023-02-28T06:21:38;102446.60;;;-3.60
69435;BMP180;56625;54.322;18.582;2023-02-28T06:24:05;102449.00;;;-3.50
69435;BMP180;56625;54.322;18.582;2023-02-28T06:26:31;102448.00;;;-3.50
69435;BMP180;56625;54.322;18.582;2023-02-28T06:28:58;102447.80;;;-3.50
69435;BMP180;56625;54.322;18.582;2023-02-28T06:31:25;102448.80;;;-3.40
69435;BMP180;56625;54.322;18.582;2023-02-28T06:33:52;102448.20;;;-3.40
69435;BMP180;56625;54.322;18.582;2023-02-28T06:36:18;102450.60;;;-3.30
69435;BMP180;56625;54.322;18.582;2023-02-28T06:38:45;102440.20;;;-3.20
69435;BMP180;56625;54.322;18.582;2023-02-28T06:41:12;102445.40;;;-3.10
69435;BMP180;56625;54.322;18.582;2023-02-28T06:43:41;102444.60;;;-2.98
69435;BMP180;56625;54.322;18.582;2023-02-28T06:46:13;102437.80;;;-2.80
69435;BMP180;56625;54.322;18.582;2023-02-28T06:48:42;102436.40;;;-2.70
69435;BMP180;56625;54.322;18.582;2023-02-28T06:51:18;102437.60;;;-2.52
69435;BMP180;56625;54.322;18.582;2023-02-28T06:53:51;102433.80;;;-2.40
69435;BMP180;56625;54.322;18.582;2023-02-28T06:56:19;102432.80;;;-2.28
69435;BMP180;56625;54.322;18.582;2023-02-28T06:58:49;102430.40;;;-2.10
69435;BMP180;56625;54.322;18.582;2023-02-28T07:01:16;102429.40;;;-1.96
69435;BMP180;56625;54.322;18.582;2023-02-28T07:03:43;102430.00;;;-1.80
69435;BMP180;56625;54.322;18.582;2023-02-28T07:06:10;102424.20;;;-1.70
69435;BMP180;56625;54.322;18.582;2023-02-28T07:08:36;102430.80;;;-1.50
69435;BMP180;56625;54.322;18.582;2023-02-28T07:11:04;102425.80;;;-1.40
69435;BMP180;56625;54.322;18.582;2023-02-28T07:13:31;102425.80;;;-1.20
69435;BMP180;56625;54.322;18.582;2023-02-28T07:16:04;102427.60;;;-1.10
69435;BMP180;56625;54.322;18.582;2023-02-28T07:18:32;102434.80;;;-0.92
69435;BMP180;56625;54.322;18.582;2023-02-28T07:21:03;102432.40;;;-0.80
69435;BMP180;56625;54.322;18.582;2023-02-28T07:23:30;102431.40;;;-0.60
69435;BMP180;56625;54.322;18.582;2023-02-28T07:25:57;102425.20;;;-0.50
69435;BMP180;56625;54.322;18.582;2023-02-28T07:28:25;102432.60;;;-0.40
69435;BMP180;56625;54.322;18.582;2023-02-28T07:30:52;102431.60;;;-0.30
69435;BMP180;56625;54.322;18.582;2023-02-28T07:33:18;102430.20;;;-0.14
69435;BMP180;56625;54.322;18.582;2023-02-28T07:35:45;102424.40;;;0.00
69435;BMP180;56625;54.322;18.582;2023-02-28T07:38:12;102423.80;;;0.12
69435;BMP180;56625;54.322;18.582;2023-02-28T07:40:40;102425.20;;;0.30
69435;BMP180;56625;54.322;18.582;2023-02-28T07:43:06;102421.60;;;0.40
69435;BMP180;56625;54.322;18.582;2023-02-28T07:45:32;102419.20;;;0.50
69435;BMP180;56625;54.322;18.582;2023-02-28T07:48:01;102417.80;;;0.70
69435;BMP180;56625;54.322;18.582;2023-02-28T07:50:28;102427.00;;;0.80
69435;BMP180;56625;54.322;18.582;2023-02-28T07:52:59;102426.60;;;0.90
69435;BMP180;56625;54.322;18.582;2023-02-28T07:55:25;102431.60;;;1.08
69435;BMP180;56625;54.322;18.582;2023-02-28T07:57:52;102424.00;;;1.10
69435;BMP180;56625;54.322;18.582;2023-02-28T08:00:19;102425.00;;;1.20
69435;BMP180;56625;54.322;18.582;2023-02-28T08:02:46;102422.40;;;1.20
69435;BMP180;56625;54.322;18.582;2023-02-28T08:05:12;102426.40;;;1.40
69435;BMP180;56625;54.322;18.582;2023-02-28T08:07:39;102421.80;;;1.50
69435;BMP180;56625;54.322;18.582;2023-02-28T08:10:06;102419.80;;;1.60
69435;BMP180;56625;54.322;18.582;2023-02-28T08:12:35;102419.00;;;1.66
69435;BMP180;56625;54.322;18.582;2023-02-28T08:15:02;102410.20;;;1.70
69435;BMP180;56625;54.322;18.582;2023-02-28T08:17:28;102416.80;;;1.80
69435;BMP180;56625;54.322;18.582;2023-02-28T08:19:55;102409.00;;;1.80
69435;BMP180;56625;54.322;18.582;2023-02-28T08:22:21;102406.20;;;1.72
69435;BMP180;56625;54.322;18.582;2023-02-28T08:24:48;102406.60;;;1.80
69435;BMP180;56625;54.322;18.582;2023-02-28T08:27:15;102409.40;;;2.12
69435;BMP180;56625;54.322;18.582;2023-02-28T08:29:41;102403.00;;;2.50
69435;BMP180;56625;54.322;18.582;2023-02-28T08:32:08;102398.00;;;3.30
69435;BMP180;56625;54.322;18.582;2023-02-28T08:34:46;102386.40;;;3.20
69435;BMP180;56625;54.322;18.582;2023-02-28T08:37:14;102383.20;;;3.10
69435;BMP180;56625;54.322;18.582;2023-02-28T08:39:41;102382.80;;;3.10
69435;BMP180;56625;54.322;18.582;2023-02-28T08:42:09;102379.20;;;3.12
69435;BMP180;56625;54.322;18.582;2023-02-28T08:44:36;102378.00;;;3.10
69435;BMP180;56625;54.322;18.582;2023-02-28T08:47:02;102380.40;;;3.00
69435;BMP180;56625;54.322;18.582;2023-02-28T08:49:29;102370.80;;;3.00
69435;BMP180;56625;54.322;18.582;2023-02-28T08:51:55;102373.40;;;3.00
69435;BMP180;56625;54.322;18.582;2023-02-28T08:54:24;102376.80;;;3.08
69435;BMP180;56625;54.322;18.582;2023-02-28T08:56:50;102377.00;;;3.20
69435;BMP180;56625;54.322;18.582;2023-02-28T08:59:17;102379.60;;;3.30
69435;BMP180;56625;54.322;18.582;2023-02-28T09:01:43;102384.40;;;3.30
69435;BMP180;56625;54.322;18.582;2023-02-28T09:04:10;102383.20;;;3.30
69435;BMP180;56625;54.322;18.582;2023-02-28T09:06:39;102390.60;;;3.46
69435;BMP180;56625;54.322;18.582;2023-02-28T09:09:05;102387.40;;;3.60
69435;BMP180;56625;54.322;18.582;2023-02-28T09:11:34;102384.20;;;3.58
69435;BMP180;56625;54.322;18.582;2023-02-28T09:14:02;102385.80;;;3.60
69435;BMP180;56625;54.322;18.582;2023-02-28T09:16:31;102398.00;;;3.80
69435;BMP180;56625;54.322;18.582;2023-02-28T09:19:00;102388.00;;;3.80
69435;BMP180;56625;54.322;18.582;2023-02-28T09:21:27;102393.80;;;3.76
69435;BMP180;56625;54.322;18.582;2023-02-28T09:23:54;102392.60;;;3.86
69435;BMP180;56625;54.322;18.582;2023-02-28T09:26:27;102386.40;;;3.90
69435;BMP180;56625;54.322;18.582;2023-02-28T09:29:04;102384.40;;;4.00
69435;BMP180;56625;54.322;18.582;2023-02-28T09:31:31;102394.20;;;4.00
69435;BMP180;56625;54.322;18.582;2023-02-28T09:33:58;102397.40;;;4.00
69435;BMP180;56625;54.322;18.582;2023-02-28T09:36:27;102397.40;;;4.10
69435;BMP180;56625;54.322;18.582;2023-02-28T09:39:10;102391.20;;;4.10
69435;BMP180;56625;54.322;18.582;2023-02-28T09:41:43;102399.80;;;4.20
69435;BMP180;56625;54.322;18.582;2023-02-28T09:44:35;102400.40;;;4.28
69435;BMP180;56625;54.322;18.582;2023-02-28T09:50:00;102405.00;;;4.40
69435;BMP180;56625;54.322;18.582;2023-02-28T09:52:32;102399.60;;;4.60
69435;BMP180;56625;54.322;18.582;2023-02-28T09:55:22;102404.00;;;4.82
69435;BMP180;56625;54.322;18.582;2023-02-28T09:57:50;102399.20;;;5.00
69435;BMP180;56625;54.322;18.582;2023-02-28T10:00:24;102391.80;;;5.00
69435;BMP180;56625;54.322;18.582;2023-02-28T10:05:52;102376.00;;;5.00
69435;BMP180;56625;54.322;18.582;2023-02-28T10:08:30;102376.40;;;4.94
69435;BMP180;56625;54.322;18.582;2023-02-28T10:11:02;102375.40;;;5.10
69435;BMP180;56625;54.322;18.582;2023-02-28T10:13:53;102382.80;;;5.10
69435;BMP180;56625;54.322;18.582;2023-02-28T10:17:08;102368.20;;;5.24
69435;BMP180;56625;54.322;18.582;2023-02-28T10:22:33;102363.60;;;5.30
69435;BMP180;56625;54.322;18.582;2023-02-28T10:25:04;102369.20;;;5.44
69435;BMP180;56625;54.322;18.582;2023-02-28T10:27:32;102367.00;;;5.40
69435;BMP180;56625;54.322;18.582;2023-02-28T10:30:01;102363.00;;;5.40
69435;BMP180;56625;54.322;18.582;2023-02-28T10:32:34;102362.20;;;5.40
69435;BMP180;56625;54.322;18.582;2023-02-28T10:35:22;102367.00;;;5.40
69435;BMP180;56625;54.322;18.582;2023-02-28T10:37:58;102364.40;;;5.50
69435;BMP180;56625;54.322;18.582;2023-02-28T10:40:34;102363.00;;;5.70
69435;BMP180;56625;54.322;18.582;2023-02-28T10:49:21;102358.00;;;5.70
69435;BMP180;56625;54.322;18.582;2023-02-28T10:51:57;102357.20;;;5.70
69435;BMP180;56625;54.322;18.582;2023-02-28T10:54:33;102358.80;;;5.72
69435;BMP180;56625;54.322;18.582;2023-02-28T10:57:22;102363.60;;;5.74
69435;BMP180;56625;54.322;18.582;2023-02-28T11:02:40;102364.00;;;6.00
69435;BMP180;56625;54.322;18.582;2023-02-28T11:05:35;102360.60;;;6.30
69435;BMP180;56625;54.322;18.582;2023-02-28T11:08:11;102353.20;;;6.48
69435;BMP180;56625;54.322;18.582;2023-02-28T11:10:39;102349.40;;;6.42
69435;BMP180;56625;54.322;18.582;2023-02-28T11:13:06;102344.60;;;6.40
69435;BMP180;56625;54.322;18.582;2023-02-28T11:15:34;102347.60;;;6.40
69435;BMP180;56625;54.322;18.582;2023-02-28T11:21:01;102338.00;;;6.30
69435;BMP180;56625;54.322;18.582;2023-02-28T11:23:32;102336.20;;;6.28
69435;BMP180;56625;54.322;18.582;2023-02-28T11:26:04;102335.40;;;6.10
69435;BMP180;56625;54.322;18.582;2023-02-28T11:28:40;102333.40;;;6.10
69435;BMP180;56625;54.322;18.582;2023-02-28T11:33:50;102333.80;;;6.04
69435;BMP180;56625;54.322;18.582;2023-02-28T11:36:28;102328.20;;;6.10
69435;BMP180;56625;54.322;18.582;2023-02-28T11:39:11;102331.80;;;6.20
69435;BMP180;56625;54.322;18.582;2023-02-28T11:56:44;102305.20;;;6.30
69435;BMP180;56625;54.322;18.582;2023-02-28T11:59:51;102302.20;;;6.36
69435;BMP180;56625;54.322;18.582;2023-02-28T12:02:44;102291.20;;;6.40
69435;BMP180;56625;54.322;18.582;2023-02-28T12:05:35;102284.60;;;6.44
69435;BMP180;56625;54.322;18.582;2023-02-28T12:11:51;102284.80;;;6.54
69435;BMP180;56625;54.322;18.582;2023-02-28T12:14:50;102282.40;;;6.40
69435;BMP180;56625;54.322;18.582;2023-02-28T12:20:35;102278.40;;;6.28
69435;BMP180;56625;54.322;18.582;2023-02-28T12:26:11;102274.40;;;6.40
69435;BMP180;56625;54.322;18.582;2023-02-28T12:29:03;102273.00;;;6.40
69435;BMP180;56625;54.322;18.582;2023-02-28T12:31:55;102273.20;;;6.40
69435;BMP180;56625;54.322;18.582;2023-02-28T12:34:41;102272.80;;;6.60
69435;BMP180;56625;54.322;18.582;2023-02-28T12:37:22;102271.60;;;6.70
69435;BMP180;56625;54.322;18.582;2023-02-28T12:40:00;102271.40;;;6.60
69435;BMP180;56625;54.322;18.582;2023-02-28T12:42:40;102271.60;;;6.70
69435;BMP180;56625;54.322;18.582;2023-02-28T12:48:28;102274.60;;;6.90
69435;BMP180;56625;54.322;18.582;2023-02-28T12:50:57;102271.40;;;6.80
69435;BMP180;56625;54.322;18.582;2023-02-28T12:59:56;102267.40;;;6.50
69435;BMP180;56625;54.322;18.582;2023-02-28T13:05:37;102262.80;;;6.40
69435;BMP180;56625;54.322;18.582;2023-02-28T13:11:41;102266.20;;;6.60
69435;BMP180;56625;54.322;18.582;2023-02-28T13:17:11;102268.80;;;6.70
69435;BMP180;56625;54.322;18.582;2023-02-28T13:19:44;102267.80;;;6.70
69435;BMP180;56625;54.322;18.582;2023-02-28T13:27:54;102255.60;;;6.70
69435;BMP180;56625;54.322;18.582;2023-02-28T13:33:34;102254.00;;;6.70
69435;BMP180;56625;54.322;18.582;2023-02-28T13:38:48;102248.60;;;6.50
69435;BMP180;56625;54.322;18.582;2023-02-28T13:41:42;102252.20;;;6.60
69435;BMP180;56625;54.322;18.582;2023-02-28T13:44:14;102248.20;;;6.50
69435;BMP180;56625;54.322;18.582;2023-02-28T13:47:20;102237.60;;;6.40
69435;BMP180;56625;54.322;18.582;2023-02-28T13:49:47;102240.00;;;6.42
69435;BMP180;56625;54.322;18.582;2023-02-28T13:52:20;102234.80;;;6.40
69435;BMP180;56625;54.322;18.582;2023-02-28T13:55:25;102229.00;;;6.40
69435;BMP180;56625;54.322;18.582;2023-02-28T14:06:55;102232.00;;;6.28
69435;BMP180;56625;54.322;18.582;2023-02-28T14:09:38;102229.40;;;6.10
69435;BMP180;56625;54.322;18.582;2023-02-28T14:15:38;102227.60;;;6.00
69435;BMP180;56625;54.322;18.582;2023-02-28T14:18:29;102225.60;;;5.90
69435;BMP180;56625;54.322;18.582;2023-02-28T14:32:35;102208.40;;;5.80
69435;BMP180;56625;54.322;18.582;2023-02-28T14:35:39;102214.60;;;5.70
69435;BMP180;56625;54.322;18.582;2023-02-28T14:38:18;102214.80;;;5.70
69435;BMP180;56625;54.322;18.582;2023-02-28T14:40:52;102214.20;;;5.70
69435;BMP180;56625;54.322;18.582;2023-02-28T14:43:26;102217.60;;;5.70
69435;BMP180;56625;54.322;18.582;2023-02-28T14:45:58;102226.80;;;5.70
69435;BMP180;56625;54.322;18.582;2023-02-28T14:48:26;102227.40;;;5.70
69435;BMP180;56625;54.322;18.582;2023-02-28T14:50:59;102222.00;;;5.62
69435;BMP180;56625;54.322;18.582;2023-02-28T14:53:30;102223.40;;;5.70
69435;BMP180;56625;54.322;18.582;2023-02-28T14:56:01;102224.20;;;5.70
69435;BMP180;56625;54.322;18.582;2023-02-28T14:58:32;102225.00;;;5.70
69435;BMP180;56625;54.322;18.582;2023-02-28T15:01:04;102223.80;;;5.80
69435;BMP180;56625;54.322;18.582;2023-02-28T15:03:35;102218.20;;;5.76
69435;BMP180;56625;54.322;18.582;2023-02-28T15:06:15;102216.80;;;5.70
69435;BMP180;56625;54.322;18.582;2023-02-28T15:08:45;102213.40;;;5.70
69435;BMP180;56625;54.322;18.582;2023-02-28T15:11:18;102216.00;;;5.60
69435;BMP180;56625;54.322;18.582;2023-02-28T15:13:50;102212.60;;;5.60
69435;BMP180;56625;54.322;18.582;2023-02-28T15:18:59;102207.60;;;5.50
69435;BMP180;56625;54.322;18.582;2023-02-28T15:21:40;102200.00;;;5.50
69435;BMP180;56625;54.322;18.582;2023-02-28T15:24:23;102201.00;;;5.40
69435;BMP180;56625;54.322;18.582;2023-02-28T15:27:03;102204.40;;;5.30
69435;BMP180;56625;54.322;18.582;2023-02-28T15:29:46;102203.00;;;5.24
69435;BMP180;56625;54.322;18.582;2023-02-28T15:35:25;102208.00;;;5.10
69435;BMP180;56625;54.322;18.582;2023-02-28T15:38:04;102210.80;;;5.10
69435;BMP180;56625;54.322;18.582;2023-02-28T15:40:49;102206.20;;;5.00
69435;BMP180;56625;54.322;18.582;2023-02-28T15:43:34;102205.80;;;4.90
69435;BMP180;56625;54.322;18.582;2023-02-28T15:46:08;102208.00;;;4.90
69435;BMP180;56625;54.322;18.582;2023-02-28T15:48:44;102213.00;;;4.90
69435;BMP180;56625;54.322;18.582;2023-02-28T15:51:21;102212.80;;;4.90
69435;BMP180;56625;54.322;18.582;2023-02-28T15:54:02;102210.40;;;4.84
69435;BMP180;56625;54.322;18.582;2023-02-28T15:56:36;102204.40;;;4.74
69435;BMP180;56625;54.322;18.582;2023-02-28T15:59:17;102201.40;;;4.60
69435;BMP180;56625;54.322;18.582;2023-02-28T16:01:45;102200.60;;;4.50
69435;BMP180;56625;54.322;18.582;2023-02-28T16:04:19;102210.20;;;4.40
69435;BMP180;56625;54.322;18.582;2023-02-28T16:07:01;102201.40;;;4.30
69435;BMP180;56625;54.322;18.582;2023-02-28T16:09:28;102202.20;;;4.20
69435;BMP180;56625;54.322;18.582;2023-02-28T16:12:02;102189.80;;;4.12
69435;BMP180;56625;54.322;18.582;2023-02-28T16:14:30;102190.00;;;4.00
69435;BMP180;56625;54.322;18.582;2023-02-28T16:17:04;102195.00;;;3.94
69435;BMP180;56625;54.322;18.582;2023-02-28T16:19:32;102199.20;;;3.90
69435;BMP180;56625;54.322;18.582;2023-02-28T16:22:01;102204.80;;;3.80
69435;BMP180;56625;54.322;18.582;2023-02-28T16:24:28;102198.00;;;3.70
69435;BMP180;56625;54.322;18.582;2023-02-28T16:26:57;102194.60;;;3.60
69435;BMP180;56625;54.322;18.582;2023-02-28T16:29:29;102200.80;;;3.60
69435;BMP180;56625;54.322;18.582;2023-02-28T16:31:57;102199.20;;;3.50
69435;BMP180;56625;54.322;18.582;2023-02-28T16:34:24;102204.40;;;3.40
69435;BMP180;56625;54.322;18.582;2023-02-28T16:36:52;102197.40;;;3.38
69435;BMP180;56625;54.322;18.582;2023-02-28T16:39:19;102197.80;;;3.30
69435;BMP180;56625;54.322;18.582;2023-02-28T16:41:51;102192.20;;;3.20